createdAt,value
2018-04-16T00:00:13.703Z,16.40
2018-04-16T00:02:41.150Z,16.40
2018-04-16T00:05:08.611Z,16.40
2018-04-16T00:07:36.080Z,16.40
2018-04-16T00:10:03.535Z,16.40
2018-04-16T00:12:31.007Z,16.40
2018-04-16T00:14:58.458Z,16.30
2018-04-16T00:17:25.937Z,16.30
2018-04-16T00:19:53.410Z,16.20
2018-04-16T00:22:20.868Z,16.10
2018-04-16T00:24:48.341Z,16.00
2018-04-16T00:27:15.830Z,15.90
2018-04-16T00:29:43.336Z,15.90
2018-04-16T00:32:17.372Z,15.90
2018-04-16T00:34:50.556Z,15.90
2018-04-16T00:37:23.844Z,15.90
2018-04-16T00:39:56.863Z,15.90
2018-04-16T00:42:29.904Z,15.80
2018-04-16T00:45:03.742Z,15.60
2018-04-16T00:47:36.902Z,15.60
2018-04-16T00:50:10.859Z,15.40
2018-04-16T00:52:44.045Z,15.40
2018-04-16T00:55:17.259Z,15.30
2018-04-16T00:57:50.491Z,15.20
2018-04-16T01:00:24.455Z,15.10
2018-04-16T01:02:57.679Z,15.10
2018-04-16T01:05:30.887Z,15.10
2018-04-16T01:08:04.849Z,15.00
2018-04-16T01:10:38.048Z,15.00
2018-04-16T01:13:11.145Z,15.00
2018-04-16T01:15:44.228Z,15.00
2018-04-16T01:18:17.431Z,14.90
2018-04-16T01:20:50.451Z,14.90
2018-04-16T01:23:24.277Z,14.80
2018-04-16T01:25:57.380Z,14.80
2018-04-16T01:28:30.603Z,14.80
2018-04-16T01:31:03.767Z,14.90
2018-04-16T01:33:36.960Z,15.00
2018-04-16T01:36:10.015Z,15.10
2018-04-16T01:38:43.985Z,15.20
2018-04-16T01:41:17.043Z,15.10
2018-04-16T01:43:50.260Z,15.20
2018-04-16T01:46:23.491Z,15.20
2018-04-16T01:48:56.693Z,15.20
2018-04-16T01:51:29.722Z,15.20
2018-04-16T01:54:02.902Z,15.20
2018-04-16T01:56:36.303Z,15.20
2018-04-16T01:59:09.503Z,15.20
2018-04-16T02:01:42.626Z,15.20
2018-04-16T02:04:15.851Z,15.10
2018-04-16T02:06:48.947Z,15.10
2018-04-16T02:09:23.004Z,15.10
2018-04-16T02:11:56.052Z,15.00
2018-04-16T02:14:29.121Z,15.10
2018-04-16T02:17:03.068Z,15.10
2018-04-16T02:19:36.263Z,15.00
2018-04-16T02:22:09.483Z,15.10
2018-04-16T02:24:42.573Z,15.10
2018-04-16T02:27:15.784Z,15.20
2018-04-16T02:29:48.865Z,15.20
2018-04-16T02:32:22.064Z,15.20
2018-04-16T02:34:55.115Z,15.20
2018-04-16T02:37:28.179Z,15.30
2018-04-16T02:40:01.428Z,15.30
2018-04-16T02:42:34.608Z,15.30
2018-04-16T02:45:07.853Z,15.30
2018-04-16T02:47:41.764Z,15.20
2018-04-16T02:50:14.971Z,15.20
2018-04-16T02:52:47.995Z,15.20
2018-04-16T02:55:21.183Z,15.20
2018-04-16T02:57:54.435Z,15.20
2018-04-16T03:00:27.491Z,15.20
2018-04-16T03:03:00.672Z,15.20
2018-04-16T03:05:33.737Z,15.10
2018-04-16T03:08:06.871Z,15.10
2018-04-16T03:10:40.044Z,15.00
2018-04-16T03:13:13.228Z,14.90
2018-04-16T03:15:46.274Z,14.90
2018-04-16T03:18:19.488Z,14.90
2018-04-16T03:20:52.488Z,14.90
2018-04-16T03:23:25.723Z,14.90
2018-04-16T03:25:58.875Z,14.90
2018-04-16T03:28:32.019Z,14.80
2018-04-16T03:31:06.315Z,14.80
2018-04-16T03:33:39.696Z,14.80
2018-04-16T03:36:12.831Z,14.70
2018-04-16T03:38:46.107Z,14.70
2018-04-16T03:41:20.199Z,14.60
2018-04-16T03:43:53.497Z,14.60
2018-04-16T03:46:26.854Z,14.60
2018-04-16T03:49:00.027Z,14.50
2018-04-16T03:51:32.728Z,14.40
2018-04-16T03:54:00.360Z,14.40
2018-04-16T03:56:28.076Z,14.40
2018-04-16T03:58:57.033Z,14.40
2018-04-16T04:03:58.439Z,14.30
2018-04-16T04:06:25.967Z,14.30
2018-04-16T04:08:53.548Z,14.20
2018-04-16T04:11:21.104Z,14.10
2018-04-16T04:13:48.660Z,14.10
2018-04-16T04:16:17.146Z,14.10
2018-04-16T04:18:45.480Z,14.10
2018-04-16T04:21:15.370Z,14.10
2018-04-16T04:23:55.440Z,14.10
2018-04-16T04:26:34.707Z,14.10
2018-04-16T04:29:14.001Z,14.10
2018-04-16T04:31:41.745Z,14.10
2018-04-16T04:34:09.503Z,14.10
2018-04-16T04:36:37.315Z,14.10
2018-04-16T04:39:05.718Z,14.20
2018-04-16T04:41:33.483Z,14.20
2018-04-16T04:44:01.518Z,14.20
2018-04-16T04:46:29.200Z,14.10
2018-04-16T04:48:57.582Z,14.10
2018-04-16T04:51:25.335Z,14.10
2018-04-16T04:53:52.916Z,14.10
2018-04-16T04:56:20.479Z,14.10
2018-04-16T04:58:48.967Z,14.10
2018-04-16T05:01:17.372Z,14.10
2018-04-16T05:03:45.091Z,14.10
2018-04-16T05:06:13.519Z,14.00
2018-04-16T05:08:41.224Z,14.00
2018-04-16T05:11:08.899Z,14.10
2018-04-16T05:13:39.181Z,14.00
2018-04-16T05:16:06.762Z,14.00
2018-04-16T05:18:34.242Z,14.00
2018-04-16T05:21:01.818Z,13.90
2018-04-16T05:23:30.183Z,13.80
2018-04-16T05:25:57.670Z,13.80
2018-04-16T05:28:25.137Z,13.80
2018-04-16T05:30:52.614Z,13.70
2018-04-16T05:33:20.334Z,13.70
2018-04-16T05:35:48.559Z,13.70
2018-04-16T05:38:16.022Z,13.60
2018-04-16T05:40:44.474Z,13.60
2018-04-16T05:43:11.951Z,13.60
2018-04-16T05:45:39.625Z,13.60
2018-04-16T05:48:07.135Z,13.60
2018-04-16T05:50:34.789Z,13.60
2018-04-16T05:53:02.740Z,13.60
2018-04-16T05:55:30.219Z,13.60
2018-04-16T05:57:57.704Z,13.60
2018-04-16T06:00:25.211Z,13.60
2018-04-16T06:02:53.441Z,13.60
2018-04-16T06:05:20.899Z,13.60
2018-04-16T06:07:48.379Z,13.70
2018-04-16T06:10:15.855Z,13.80
2018-04-16T06:12:43.355Z,13.80
2018-04-16T06:15:10.812Z,13.90
2018-04-16T06:17:38.306Z,14.00
2018-04-16T06:20:05.857Z,14.10
2018-04-16T06:22:33.362Z,14.10
2018-04-16T06:25:00.839Z,14.10
2018-04-16T06:27:28.363Z,14.10
2018-04-16T06:29:55.788Z,14.10
2018-04-16T06:32:23.247Z,14.10
2018-04-16T06:34:50.699Z,14.10
2018-04-16T06:37:18.208Z,14.10
2018-04-16T06:39:45.679Z,14.20
2018-04-16T06:42:13.907Z,14.20
2018-04-16T06:44:42.154Z,14.20
2018-04-16T06:47:09.651Z,14.20
2018-04-16T06:49:37.120Z,14.30
2018-04-16T06:52:05.362Z,14.30
2018-04-16T06:54:32.831Z,14.30
2018-04-16T06:57:00.432Z,14.30
2018-04-16T06:59:28.697Z,14.40
2018-04-16T07:01:56.198Z,14.40
2018-04-16T07:04:23.709Z,14.40
2018-04-16T07:06:51.211Z,14.50
2018-04-16T07:09:19.457Z,14.60
2018-04-16T07:11:46.932Z,14.60
2018-04-16T07:14:15.178Z,14.70
2018-04-16T07:16:42.637Z,14.70
2018-04-16T07:19:10.135Z,14.70
2018-04-16T07:21:37.609Z,14.70
2018-04-16T07:24:05.068Z,14.70
2018-04-16T07:26:32.545Z,14.70
2018-04-16T07:28:59.998Z,14.70
2018-04-16T07:31:27.606Z,14.70
2018-04-16T07:33:55.080Z,14.70
2018-04-16T07:36:23.480Z,14.80
2018-04-16T07:38:50.931Z,14.80
2018-04-16T07:41:18.492Z,14.90
2018-04-16T07:43:45.955Z,15.00
2018-04-16T07:46:13.446Z,15.00
2018-04-16T07:48:40.956Z,15.10
2018-04-16T07:51:08.424Z,15.20
2018-04-16T07:53:35.928Z,15.40
2018-04-16T07:56:03.402Z,15.70
2018-04-16T07:58:30.882Z,15.80
2018-04-16T08:00:58.351Z,15.70
2018-04-16T08:03:26.604Z,15.50
2018-04-16T08:05:54.179Z,15.50
2018-04-16T08:08:21.634Z,15.40
2018-04-16T08:10:49.091Z,15.40
2018-04-16T08:13:16.586Z,15.40
2018-04-16T08:15:44.075Z,15.50
2018-04-16T08:18:11.536Z,15.60
2018-04-16T08:20:38.986Z,15.80
2018-04-16T08:23:06.467Z,15.90
2018-04-16T08:25:33.982Z,16.10
2018-04-16T08:28:01.464Z,16.30
2018-04-16T08:30:28.918Z,16.40
2018-04-16T08:32:56.403Z,16.50
2018-04-16T08:35:23.867Z,16.50
2018-04-16T08:37:51.343Z,16.50
2018-04-16T08:40:19.592Z,16.60
2018-04-16T08:42:47.059Z,16.60
2018-04-16T08:45:14.543Z,16.70
2018-04-16T08:47:42.772Z,16.70
2018-04-16T08:50:10.264Z,16.70
2018-04-16T08:52:37.760Z,16.60
2018-04-16T08:55:05.207Z,16.60
2018-04-16T08:57:32.691Z,16.70
2018-04-16T09:00:00.248Z,16.80
2018-04-16T09:02:27.708Z,16.90
2018-04-16T09:04:55.187Z,16.80
2018-04-16T09:07:23.581Z,16.80
2018-04-16T09:09:51.057Z,16.80
2018-04-16T09:12:19.338Z,16.90
2018-04-16T09:14:46.837Z,16.90
2018-04-16T09:17:14.320Z,17.10
2018-04-16T09:19:41.778Z,17.30
2018-04-16T09:22:09.222Z,17.50
2018-04-16T09:24:36.700Z,17.40
2018-04-16T09:27:04.188Z,17.40
2018-04-16T09:29:31.662Z,17.40
2018-04-16T09:31:59.229Z,17.40
2018-04-16T09:34:26.856Z,17.40
2018-04-16T09:36:54.327Z,17.30
2018-04-16T09:39:22.556Z,17.40
2018-04-16T09:41:50.039Z,17.40
2018-04-16T09:44:17.490Z,17.40
2018-04-16T09:46:44.967Z,17.50
2018-04-16T09:49:12.435Z,17.70
2018-04-16T09:51:40.675Z,17.80
2018-04-16T09:54:08.132Z,17.80
2018-04-16T09:56:35.603Z,17.60
2018-04-16T09:59:03.083Z,17.40
2018-04-16T10:01:36.912Z,17.20
2018-04-16T10:04:04.415Z,17.20
2018-04-16T10:06:31.880Z,17.20
2018-04-16T10:08:59.336Z,17.30
2018-04-16T10:11:26.821Z,17.20
2018-04-16T10:13:54.283Z,17.10
2018-04-16T10:16:22.515Z,17.20
2018-04-16T10:18:49.984Z,17.20
2018-04-16T10:21:17.612Z,17.20
2018-04-16T10:23:45.055Z,17.20
2018-04-16T10:26:12.631Z,17.20
2018-04-16T10:28:40.099Z,17.20
2018-04-16T10:31:07.560Z,17.20
2018-04-16T10:33:35.031Z,17.20
2018-04-16T10:36:02.512Z,17.30
2018-04-16T10:38:29.997Z,17.30
2018-04-16T10:40:58.257Z,17.40
2018-04-16T10:43:25.704Z,17.40
2018-04-16T10:45:53.171Z,17.50
2018-04-16T10:48:20.615Z,17.60
2018-04-16T10:50:48.087Z,17.60
2018-04-16T10:53:15.540Z,17.70
2018-04-16T10:55:43.027Z,17.70
2018-04-16T10:58:10.479Z,17.80
2018-04-16T11:00:38.688Z,17.90
2018-04-16T11:03:06.178Z,17.90
2018-04-16T11:05:33.624Z,17.90
2018-04-16T11:08:01.088Z,18.00
2018-04-16T11:10:28.560Z,18.00
2018-04-16T11:12:56.012Z,18.10
2018-04-16T11:15:23.482Z,18.20
2018-04-16T11:17:50.941Z,18.20
2018-04-16T11:20:18.404Z,18.10
2018-04-16T11:22:46.647Z,18.10
2018-04-16T11:25:14.872Z,18.20
2018-04-16T11:27:42.346Z,18.20
2018-04-16T11:30:09.795Z,18.20
2018-04-16T11:32:37.252Z,18.10
2018-04-16T11:35:05.491Z,18.20
2018-04-16T11:37:32.943Z,18.20
2018-04-16T11:40:00.383Z,18.30
2018-04-16T11:42:27.860Z,18.50
2018-04-16T11:44:55.339Z,18.70
2018-04-16T11:47:22.815Z,18.90
2018-04-16T11:49:50.354Z,19.10
2018-04-16T11:52:17.819Z,19.20
2018-04-16T11:54:46.091Z,19.30
2018-04-16T11:57:13.537Z,19.20
2018-04-16T11:59:40.983Z,19.30
2018-04-16T12:02:08.525Z,19.50
2018-04-16T12:04:36.046Z,19.80
2018-04-16T12:07:03.460Z,20.00
2018-04-16T12:09:30.926Z,20.30
2018-04-16T12:11:58.384Z,20.50
2018-04-16T12:14:25.839Z,20.60
2018-04-16T12:16:53.311Z,20.50
2018-04-16T12:19:20.799Z,20.40
2018-04-16T12:21:48.244Z,20.20
2018-04-16T12:24:15.711Z,20.00
2018-04-16T12:26:43.169Z,19.80
2018-04-16T12:29:11.406Z,19.50
2018-04-16T12:31:38.850Z,19.50
2018-04-16T12:34:06.324Z,19.40
2018-04-16T12:36:33.775Z,19.40
2018-04-16T12:39:01.304Z,19.40
2018-04-16T12:41:28.719Z,19.40
2018-04-16T12:43:56.178Z,19.40
2018-04-16T12:46:23.655Z,19.50
2018-04-16T12:48:51.100Z,19.50
2018-04-16T12:51:19.363Z,19.70
2018-04-16T12:53:46.839Z,19.70
2018-04-16T12:56:16.056Z,19.90
2018-04-16T12:58:43.562Z,19.90
2018-04-16T13:01:11.024Z,20.10
2018-04-16T13:03:38.487Z,20.40
2018-04-16T13:06:05.976Z,20.60
2018-04-16T13:08:33.444Z,20.60
2018-04-16T13:11:00.996Z,20.60
2018-04-16T13:13:28.448Z,20.70
2018-04-16T13:15:56.760Z,21.00
2018-04-16T13:18:24.300Z,21.00
2018-04-16T13:20:51.717Z,21.00
2018-04-16T13:23:19.195Z,21.10
2018-04-16T13:25:47.410Z,21.20
2018-04-16T13:28:14.883Z,21.20
2018-04-16T13:30:42.341Z,21.50
2018-04-16T13:33:09.811Z,21.70
2018-04-16T13:35:37.273Z,21.90
2018-04-16T13:38:04.734Z,22.10
2018-04-16T13:40:32.200Z,22.60
2018-04-16T13:42:59.685Z,23.80
2018-04-16T13:45:27.176Z,25.20
2018-04-16T13:47:54.631Z,26.50
2018-04-16T13:50:22.106Z,28.20
2018-04-16T13:52:49.563Z,30.00
2018-04-16T13:55:17.036Z,31.70
2018-04-16T13:57:45.255Z,33.80
2018-04-16T14:00:12.736Z,33.70
2018-04-16T14:02:40.210Z,34.90
2018-04-16T14:05:07.676Z,35.70
2018-04-16T14:07:35.158Z,36.70
2018-04-16T14:10:02.635Z,37.60
2018-04-16T14:12:30.864Z,39.50
2018-04-16T14:14:58.331Z,39.40
2018-04-16T14:17:25.775Z,38.80
2018-04-16T14:19:53.266Z,37.90
2018-04-16T14:22:20.706Z,38.30
2018-04-16T14:24:48.160Z,39.10
2018-04-16T14:27:15.741Z,40.20
2018-04-16T14:29:43.261Z,41.00
2018-04-16T14:32:10.743Z,40.80
2018-04-16T14:34:38.195Z,40.70
2018-04-16T14:37:05.680Z,38.00
2018-04-16T14:39:33.152Z,35.00
2018-04-16T14:42:01.382Z,31.80
2018-04-16T14:44:28.876Z,31.70
2018-04-16T14:46:56.326Z,32.80
2018-04-16T14:49:23.825Z,34.00
2018-04-16T14:51:51.283Z,35.60
2018-04-16T14:54:18.753Z,37.00
2018-04-16T14:56:46.212Z,35.40
2018-04-16T14:59:13.679Z,34.50
2018-04-16T15:01:41.140Z,35.90
2018-04-16T15:04:08.612Z,36.80
2018-04-16T15:06:36.067Z,37.90
2018-04-16T15:09:03.576Z,38.70
2018-04-16T15:11:31.040Z,39.20
2018-04-16T15:13:58.513Z,39.90
2018-04-16T15:16:26.031Z,40.70
2018-04-16T15:18:53.491Z,40.10
2018-04-16T15:21:20.987Z,39.20
2018-04-16T15:23:48.440Z,39.30
2018-04-16T15:26:15.897Z,39.80
2018-04-16T15:28:43.380Z,40.50
2018-04-16T15:31:10.846Z,40.90
2018-04-16T15:33:38.296Z,41.10
2018-04-16T15:36:05.779Z,41.30
2018-04-16T15:38:33.238Z,41.50
2018-04-16T15:41:00.695Z,41.50
2018-04-16T15:43:28.190Z,41.50
2018-04-16T15:45:55.651Z,40.30
2018-04-16T15:48:23.130Z,40.30
2018-04-16T15:50:50.592Z,40.30
2018-04-16T15:53:18.065Z,40.00
2018-04-16T15:55:45.564Z,40.00
2018-04-16T15:58:13.002Z,39.90
2018-04-16T16:00:40.508Z,39.70
2018-04-16T16:03:08.749Z,39.60
2018-04-16T16:05:36.202Z,39.60
2018-04-16T16:08:03.659Z,39.30
2018-04-16T16:10:31.131Z,38.70
2018-04-16T16:12:58.611Z,38.00
2018-04-16T16:15:26.841Z,36.10
2018-04-16T16:17:55.159Z,35.00
2018-04-16T16:20:22.645Z,34.90
2018-04-16T16:22:50.119Z,34.20
2018-04-16T16:25:17.583Z,33.60
2018-04-16T16:27:45.028Z,33.20
2018-04-16T16:30:12.536Z,33.30
2018-04-16T16:32:39.993Z,33.80
2018-04-16T16:35:07.467Z,33.70
2018-04-16T16:37:34.940Z,33.50
2018-04-16T16:40:02.400Z,32.90
2018-04-16T16:42:29.895Z,32.70
2018-04-16T16:44:57.363Z,32.90
2018-04-16T16:47:25.570Z,33.50
2018-04-16T16:49:53.156Z,33.50
2018-04-16T16:52:20.613Z,33.80
2018-04-16T16:54:48.091Z,33.80
2018-04-16T16:57:15.553Z,33.70
2018-04-16T16:59:43.026Z,33.40
2018-04-16T17:02:10.482Z,32.50
2018-04-16T17:04:37.959Z,32.00
2018-04-16T17:07:05.441Z,31.40
2018-04-16T17:09:33.093Z,30.70
2018-04-16T17:12:00.804Z,30.70
2018-04-16T17:14:28.421Z,30.80
2018-04-16T17:16:55.987Z,30.80
2018-04-16T17:19:23.611Z,30.90
2018-04-16T17:21:51.075Z,30.90
2018-04-16T17:24:18.550Z,31.00
2018-04-16T17:26:46.194Z,30.90
2018-04-16T17:29:13.903Z,30.70
2018-04-16T17:31:41.555Z,29.60
2018-04-16T17:34:09.883Z,27.70
2018-04-16T17:36:37.484Z,27.60
2018-04-16T17:39:06.981Z,27.60
2018-04-16T17:41:34.538Z,27.70
2018-04-16T17:44:02.043Z,27.50
2018-04-16T17:46:29.598Z,26.80
2018-04-16T17:48:57.098Z,26.00
2018-04-16T17:51:24.612Z,25.30
2018-04-16T17:53:52.313Z,24.60
2018-04-16T17:56:20.555Z,23.70
2018-04-16T17:58:48.060Z,23.60
2018-04-16T18:01:15.545Z,23.30
2018-04-16T18:03:42.999Z,23.10
2018-04-16T18:06:10.485Z,22.80
2018-04-16T18:08:38.729Z,22.40
2018-04-16T18:11:06.221Z,22.30
2018-04-16T18:13:34.441Z,21.90
2018-04-16T18:16:01.907Z,21.90
2018-04-16T18:18:29.364Z,21.70
2018-04-16T18:20:56.872Z,21.60
2018-04-16T18:23:25.088Z,21.20
2018-04-16T18:25:52.573Z,21.20
2018-04-16T18:28:20.091Z,21.00
2018-04-16T18:30:47.615Z,20.80
2018-04-16T18:33:15.092Z,20.60
2018-04-16T18:35:42.538Z,20.50
2018-04-16T18:38:10.784Z,20.20
2018-04-16T18:40:38.287Z,20.20
2018-04-16T18:43:05.767Z,20.00
2018-04-16T18:45:33.244Z,19.90
2018-04-16T18:48:01.876Z,19.70
2018-04-16T18:50:29.684Z,19.60
2018-04-16T18:52:57.199Z,19.60
2018-04-16T18:55:24.651Z,19.50
2018-04-16T18:57:52.115Z,19.40
2018-04-16T19:00:19.598Z,19.30
2018-04-16T19:02:47.292Z,19.20
2018-04-16T19:05:14.903Z,19.10
2018-04-16T19:07:42.423Z,19.00
2018-04-16T19:10:09.875Z,18.90
2018-04-16T19:12:37.357Z,18.80
2018-04-16T19:15:04.883Z,18.70
2018-04-16T19:17:32.446Z,18.60
2018-04-16T19:20:00.103Z,18.60
2018-04-16T19:22:27.724Z,18.50
2018-04-16T19:24:55.228Z,18.50
2018-04-16T19:27:28.435Z,18.40
2018-04-16T19:29:56.183Z,18.30
2018-04-16T19:32:23.960Z,18.30
2018-04-16T19:34:57.151Z,18.20
2018-04-16T19:37:24.634Z,18.10
2018-04-16T19:39:52.185Z,17.90
2018-04-16T19:42:25.235Z,17.80
2018-04-16T19:44:52.707Z,17.70
2018-04-16T19:47:20.488Z,17.70
2018-04-16T19:49:53.694Z,17.60
2018-04-16T19:52:21.331Z,17.60
2018-04-16T19:54:48.883Z,17.60
2018-04-16T19:57:22.151Z,17.50
2018-04-16T19:59:49.664Z,17.50
2018-04-16T20:02:22.781Z,17.50
2018-04-16T20:04:50.420Z,17.40
2018-04-16T20:07:18.062Z,17.30
2018-04-16T20:09:45.615Z,17.20
2018-04-16T20:12:13.140Z,17.20
2018-04-16T20:14:40.681Z,17.20
2018-04-16T20:17:08.183Z,17.10
2018-04-16T20:19:35.672Z,17.10
2018-04-16T20:22:03.280Z,17.00
2018-04-16T20:24:30.793Z,17.00
2018-04-16T20:26:58.290Z,16.90
2018-04-16T20:29:26.520Z,16.90
2018-04-16T20:31:53.993Z,16.90
2018-04-16T20:34:21.460Z,16.90
2018-04-16T20:36:48.943Z,16.80
2018-04-16T20:39:16.392Z,16.70
2018-04-16T20:41:43.988Z,16.60
2018-04-16T20:44:11.456Z,16.60
2018-04-16T20:46:39.018Z,16.50
2018-04-16T20:49:06.490Z,16.50
2018-04-16T20:51:33.934Z,16.50
2018-04-16T20:54:01.416Z,16.40
2018-04-16T20:56:28.891Z,16.40
2018-04-16T20:58:56.336Z,16.40
2018-04-16T21:01:23.826Z,16.30
2018-04-16T21:03:52.136Z,16.20
2018-04-16T21:06:19.627Z,16.20
2018-04-16T21:08:47.091Z,16.10
2018-04-16T21:11:14.563Z,16.10
2018-04-16T21:13:42.012Z,16.00
2018-04-16T21:16:09.474Z,16.00
2018-04-16T21:18:36.931Z,15.90
2018-04-16T21:21:04.408Z,15.80
2018-04-16T21:23:32.632Z,15.70
2018-04-16T21:26:00.083Z,15.70
2018-04-16T21:28:27.549Z,15.70
2018-04-16T21:30:54.995Z,15.60
2018-04-16T21:33:22.465Z,15.60
2018-04-16T21:35:49.920Z,15.50
2018-04-16T21:38:17.424Z,15.50
2018-04-16T21:40:44.866Z,15.40
2018-04-16T21:43:12.340Z,15.40
2018-04-16T21:45:40.590Z,15.30
2018-04-16T21:48:08.072Z,15.30
2018-04-16T21:50:35.537Z,15.30
2018-04-16T21:53:02.995Z,15.30
2018-04-16T21:55:30.486Z,15.20
2018-04-16T21:57:57.988Z,15.10
2018-04-16T22:00:25.459Z,15.00
2018-04-16T22:02:52.906Z,15.00
2018-04-16T22:05:20.431Z,15.00
2018-04-16T22:07:48.620Z,14.90
2018-04-16T22:10:16.138Z,14.80
2018-04-16T22:12:44.374Z,14.70
2018-04-16T22:15:11.831Z,14.70
2018-04-16T22:17:39.310Z,14.70
2018-04-16T22:20:07.536Z,14.50
2018-04-16T22:22:34.996Z,14.50
2018-04-16T22:25:02.471Z,14.50
2018-04-16T22:27:29.933Z,14.40
2018-04-16T22:29:57.411Z,14.30
2018-04-16T22:32:24.887Z,14.30
2018-04-16T22:34:53.132Z,14.20
2018-04-16T22:37:21.352Z,14.10
2018-04-16T22:39:48.928Z,14.10
2018-04-16T22:42:16.376Z,14.00
2018-04-16T22:44:43.872Z,14.00
2018-04-16T22:47:11.326Z,14.00
2018-04-16T22:49:38.774Z,13.90
2018-04-16T22:52:06.243Z,13.80
2018-04-16T22:54:33.867Z,13.70
2018-04-16T22:57:01.492Z,13.70
2018-04-16T22:59:28.955Z,13.60
2018-04-16T23:01:56.460Z,13.60
2018-04-16T23:04:23.928Z,13.60
2018-04-16T23:06:51.425Z,13.60
2018-04-16T23:09:18.871Z,13.50
2018-04-16T23:11:46.319Z,13.50
2018-04-16T23:14:13.780Z,13.40
2018-04-16T23:16:41.463Z,13.40
2018-04-16T23:19:08.944Z,13.40
2018-04-16T23:21:36.400Z,13.40
2018-04-16T23:24:03.880Z,13.30
2018-04-16T23:26:31.326Z,13.30
2018-04-16T23:28:58.811Z,13.30
2018-04-16T23:31:26.324Z,13.20
2018-04-16T23:33:53.796Z,13.20
2018-04-16T23:36:22.036Z,13.10
2018-04-16T23:38:49.636Z,13.10
2018-04-16T23:41:17.122Z,13.10
2018-04-16T23:43:44.579Z,13.00
2018-04-16T23:46:12.044Z,12.90
2018-04-16T23:48:39.527Z,12.90
2018-04-16T23:51:06.979Z,12.80
2018-04-16T23:53:34.430Z,12.80
2018-04-16T23:56:02.671Z,12.70
2018-04-16T23:58:30.155Z,12.70
